Time;durP1;ratioP1;P1;durP2;ratioP2;P2;SDS_P1;SDS_P2;PMS_P1;PMS_P2;Temp;Humidity;BMP_temperature;BMP_pressure;BME280_temperature;BME280_humidity;BME280_pressure;Samples;Min_cycle;Max_cycle;Signal;HPM_P1;HPM_P2
2023/11/01 00:02:15;;;;;;;7.32;3.28;;;;;;;18.70;91.47;97003.06;5055599;28;20460;-75
2023/11/01 00:04:42;;;;;;;10.02;2.90;;;;;;;18.73;92.56;97010.06;5072352;28;20075;-75
2023/11/01 00:07:08;;;;;;;7.63;2.80;;;;;;;18.83;97.79;97022.47;5072107;28;20387;-74
2023/11/01 00:09:33;;;;;;;7.78;3.13;;;;;;;18.83;95.89;97021.63;5072166;28;20037;-74
2023/11/01 00:11:59;;;;;;;6.88;2.70;;;;;;;18.88;93.65;97033.72;5071998;28;20021;-74
2023/11/01 00:14:25;;;;;;;10.80;2.50;;;;;;;18.97;94.04;97033.75;5072146;28;20138;-75
2023/11/01 00:16:51;;;;;;;7.63;2.80;;;;;;;18.99;93.86;97037.16;5071877;28;20104;-75
2023/11/01 00:19:16;;;;;;;5.47;2.35;;;;;;;18.98;100.00;97055.28;5071602;28;20044;-75
2023/11/01 00:21:42;;;;;;;11.25;2.80;;;;;;;18.98;100.00;97078.84;5071742;28;20059;-74
2023/11/01 00:24:07;;;;;;;7.18;2.35;;;;;;;18.92;100.00;97097.44;5055168;28;20472;-75
2023/11/01 00:26:33;;;;;;;6.05;2.58;;;;;;;18.81;100.00;97116.66;5088765;28;20417;-75
2023/11/01 00:28:58;;;;;;;5.03;2.28;;;;;;;18.71;100.00;97117.75;5071798;28;20039;-76
2023/11/01 00:31:24;;;;;;;11.50;2.92;;;;;;;18.47;100.00;97122.91;5073050;28;20458;-75
2023/11/01 00:33:50;;;;;;;7.82;2.72;;;;;;;18.35;100.00;97135.81;5071638;28;20024;-76
2023/11/01 00:36:16;;;;;;;7.22;2.80;;;;;;;18.21;100.00;97137.19;5071628;28;20020;-75
2023/11/01 00:38:41;;;;;;;7.50;2.60;;;;;;;18.07;100.00;97137.69;5071651;28;20495;-75
2023/11/01 00:41:07;;;;;;;5.07;2.45;;;;;;;18.13;100.00;97128.13;5071776;28;20021;-75
2023/11/01 00:43:33;;;;;;;9.98;2.72;;;;;;;18.08;100.00;97122.31;5071392;28;20040;-75
2023/11/01 00:45:58;;;;;;;5.10;2.38;;;;;;;18.03;100.00;97130.88;5071202;28;20024;-75
2023/11/01 00:48:24;;;;;;;8.20;2.83;;;;;;;17.96;100.00;97128.94;5054439;28;20099;-75
2023/11/01 00:50:49;;;;;;;6.70;3.33;;;;;;;17.96;100.00;97153.31;5071416;28;20063;-75
2023/11/01 00:53:15;;;;;;;14.27;4.72;;;;;;;17.91;100.00;97152.88;5072546;28;20021;-76
2023/11/01 00:55:40;;;;;;;19.42;8.23;;;;;;;17.50;100.00;97171.25;5087971;28;20445;-75
2023/11/01 00:58:06;;;;;;;12.07;7.10;;;;;;;17.25;100.00;97178.16;5072462;28;20025;-76
2023/11/01 01:00:31;;;;;;;10.27;4.15;;;;;;;17.24;100.00;97200.75;5071272;28;20157;-75
2023/11/01 01:02:57;;;;;;;9.88;3.90;;;;;;;17.14;100.00;97196.34;5087739;28;20025;-75
2023/11/01 01:05:23;;;;;;;6.20;3.63;;;;;;;16.99;100.00;97192.38;5071087;28;20025;-75
2023/11/01 01:07:49;;;;;;;11.18;3.22;;;;;;;16.89;100.00;97178.88;5071039;28;20071;-74
2023/11/01 01:10:15;;;;;;;10.65;6.43;;;;;;;16.89;100.00;97175.34;5070870;28;20500;-75
2023/11/01 01:12:41;;;;;;;7.93;5.10;;;;;;;16.86;100.00;97181.88;5072179;28;20388;-75
2023/11/01 01:15:07;;;;;;;7.38;4.13;;;;;;;16.67;100.00;97206.19;5087791;28;20021;-74
2023/11/01 01:17:32;;;;;;;9.82;3.17;;;;;;;16.52;100.00;97208.41;5087611;28;20029;-74
2023/11/01 01:19:58;;;;;;;4.53;2.83;;;;;;;16.24;100.00;97218.13;5054161;28;20024;-75
2023/11/01 01:22:24;;;;;;;7.57;2.70;;;;;;;16.03;100.00;97214.66;5071801;28;20123;-74
2023/11/01 01:24:49;;;;;;;8.18;2.50;;;;;;;15.83;100.00;97222.84;5070758;28;20050;-74
2023/11/01 01:27:15;;;;;;;4.57;2.50;;;;;;;15.71;100.00;97209.44;5070410;28;20047;-74
2023/11/01 01:29:40;;;;;;;3.38;2.40;;;;;;;15.71;100.00;97209.44;5070247;28;20052;-75
2023/11/01 01:32:06;;;;;;;3.30;2.20;;;;;;;15.60;100.00;97206.81;5070166;28;20488;-74
2023/11/01 01:34:31;;;;;;;9.02;2.55;;;;;;;15.51;100.00;97201.38;5070515;28;20017;-74
2023/11/01 01:36:57;;;;;;;5.38;2.38;;;;;;;15.55;100.00;97209.06;5070517;28;20063;-74
2023/11/01 01:39:22;;;;;;;6.20;2.90;;;;;;;15.59;100.00;97215.91;5070356;28;20029;-75
2023/11/01 01:41:48;;;;;;;4.85;2.30;;;;;;;15.59;100.00;97215.91;5070443;28;20504;-75
2023/11/01 01:44:14;;;;;;;3.25;2.13;;;;;;;15.48;100.00;97210.59;5070195;28;20119;-75
2023/11/01 01:46:40;;;;;;;3.95;1.88;;;;;;;15.54;100.00;97209.19;5070321;28;20032;-75
2023/11/01 01:49:06;;;;;;;2.50;1.50;;;;;;;15.56;100.00;97216.19;5070433;28;20020;-76
2023/11/01 01:51:32;;;;;;;6.47;2.08;;;;;;;15.51;100.00;97207.63;5070205;28;20035;-76
2023/11/01 01:53:58;;;;;;;3.85;1.92;;;;;;;15.56;100.00;97205.41;5070148;28;20104;-75
2023/11/01 01:56:24;;;;;;;4.05;1.92;;;;;;;15.48;100.00;97207.91;5069968;28;20112;-76
2023/11/01 01:58:53;;;;;;;6.05;1.60;;;;;;;15.39;100.00;97208.66;5070052;28;20020;-76
2023/11/01 02:01:19;;;;;;;5.05;1.70;;;;;;;15.31;100.00;97197.69;5070273;28;20111;-74
2023/11/01 02:03:45;;;;;;;6.05;1.80;;;;;;;15.29;100.00;97199.66;5069961;28;20077;-74
2023/11/01 02:06:11;;;;;;;3.03;1.98;;;;;;;15.28;100.00;97195.28;5069878;28;20032;-76
2023/11/01 02:08:37;;;;;;;7.38;2.35;;;;;;;15.31;100.00;97189.63;5069703;28;20024;-75
2023/11/01 02:11:04;;;;;;;4.40;1.92;;;;;;;15.32;100.00;97191.31;5069860;28;20112;-75
2023/11/01 02:13:29;;;;;;;7.72;2.22;;;;;;;15.35;100.00;97177.56;5069634;28;20102;-75
2023/11/01 02:15:55;;;;;;;8.23;2.95;;;;;;;15.47;100.00;97170.28;5069807;28;20472;-74
2023/11/01 02:18:21;;;;;;;5.85;3.25;;;;;;;15.39;100.00;97170.94;5069599;28;20037;-74
2023/11/01 02:20:48;;;;;;;6.90;2.80;;;;;;;15.33;100.00;97174.16;5052732;28;20098;-75
2023/11/01 02:23:14;;;;;;;5.15;2.58;;;;;;;15.23;100.00;97175.94;5069678;28;20081;-74
2023/11/01 02:25:40;;;;;;;4.80;2.60;;;;;;;15.30;100.00;97182.50;5050139;28;20050;-75
2023/11/01 02:28:07;;;;;;;6.43;3.10;;;;;;;15.28;100.00;97189.88;5069433;28;20033;-75
2023/11/01 02:30:33;;;;;;;8.60;3.13;;;;;;;15.28;100.00;97186.31;5069204;28;20472;-75
2023/11/01 02:32:59;;;;;;;5.30;2.85;;;;;;;15.30;100.00;97176.25;5069413;28;20094;-75
2023/11/01 02:35:24;;;;;;;5.05;2.28;;;;;;;15.32;100.00;97182.41;5069369;28;20115;-75
2023/11/01 02:37:50;;;;;;;6.53;2.70;;;;;;;15.32;100.00;97185.09;5069331;28;20032;-74
2023/11/01 02:40:16;;;;;;;4.20;2.85;;;;;;;15.38;100.00;97187.25;5069488;28;20056;-75
2023/11/01 02:42:42;;;;;;;9.85;3.13;;;;;;;15.48;100.00;97197.09;5068407;28;20425;-75
2023/11/01 02:45:09;;;;;;;6.00;2.28;;;;;;;15.48;100.00;97185.47;5069123;28;20111;-75
2023/11/01 02:47:38;;;;;;;8.75;2.47;;;;;;;15.52;100.00;97195.00;5069252;28;20066;-73
2023/11/01 02:50:11;;;;;;;4.90;2.50;;;;;;;15.52;100.00;97187.78;5069325;28;20111;-74
2023/11/01 02:52:37;;;;;;;12.32;2.70;;;;;;;15.57;100.00;97196.31;5070340;28;20035;-74
2023/11/01 02:55:08;;;;;;;6.75;2.80;;;;;;;15.58;100.00;97198.03;5052509;28;20455;-75
2023/11/01 02:57:34;;;;;;;8.18;3.00;;;;;;;15.48;100.00;97201.63;5068996;28;20024;-75
2023/11/01 03:00:00;;;;;;;4.32;2.90;;;;;;;15.47;100.00;97200.78;5069173;28;20028;-74
2023/11/01 03:02:26;;;;;;;7.50;3.08;;;;;;;15.45;100.00;97197.34;5052307;28;20352;-74
2023/11/01 03:04:52;;;;;;;4.53;2.50;;;;;;;15.56;100.00;97197.31;5069222;28;20021;-74
2023/11/01 03:07:17;;;;;;;8.27;2.45;;;;;;;15.62;100.00;97183.28;5069409;28;20020;-76
2023/11/01 03:09:43;;;;;;;6.22;2.80;;;;;;;15.60;100.00;97176.31;5068849;28;20029;-75
2023/11/01 03:12:09;;;;;;;6.00;2.70;;;;;;;15.49;100.00;97171.00;5070448;28;20024;-75
2023/11/01 03:14:38;;;;;;;8.02;2.88;;;;;;;15.51;100.00;97182.50;5068962;28;20090;-75
2023/11/01 03:17:03;;;;;;;5.65;2.40;;;;;;;15.48;100.00;97175.53;5052578;28;20029;-74
2023/11/01 03:19:29;;;;;;;7.05;2.47;;;;;;;15.43;100.00;97179.59;5068987;28;20119;-74
2023/11/01 03:21:54;;;;;;;9.18;2.40;;;;;;;15.37;100.00;97191.78;5068956;28;20045;-75
2023/11/01 03:24:20;;;;;;;9.23;4.32;;;;;;;15.25;100.00;97181.22;5068898;28;20427;-74
2023/11/01 03:26:45;;;;;;;7.97;3.47;;;;;;;15.13;100.00;97191.22;5070185;28;20032;-74
2023/11/01 03:29:11;;;;;;;13.65;5.38;;;;;;;15.03;100.00;97195.66;5070272;28;20115;-74
2023/11/01 03:31:36;;;;;;;5.00;3.03;;;;;;;15.05;100.00;97201.75;5068907;28;20110;-75
2023/11/01 03:34:02;;;;;;;7.55;3.10;;;;;;;14.94;100.00;97196.44;5070293;28;20024;-74
2023/11/01 03:36:27;;;;;;;9.20;4.55;;;;;;;14.97;100.00;97206.97;5068948;28;20043;-74
2023/11/01 03:38:53;;;;;;;7.22;4.15;;;;;;;14.93;100.00;97194.72;5068891;28;20119;-74
2023/11/01 03:41:19;;;;;;;13.90;7.05;;;;;;;14.89;100.00;97199.53;5068922;28;20543;-76
2023/11/01 03:43:45;;;;;;;13.10;4.13;;;;;;;14.85;100.00;97199.94;5068445;28;20127;-74
2023/11/01 03:46:10;;;;;;;7.90;3.55;;;;;;;14.85;100.00;97208.88;5068960;28;20032;-75
2023/11/01 03:48:36;;;;;;;5.72;3.70;;;;;;;14.89;100.00;97204.91;5068793;28;20094;-75
2023/11/01 03:51:01;;;;;;;5.45;3.40;;;;;;;14.93;100.00;97194.72;5068741;28;20071;-75
2023/11/01 03:53:27;;;;;;;8.93;3.80;;;;;;;14.89;100.00;97190.63;5069614;28;20486;-75
2023/11/01 03:55:52;;;;;;;10.40;3.65;;;;;;;14.88;100.00;97191.59;5073665;28;20024;-76
2023/11/01 03:58:18;;;;;;;7.13;3.20;;;;;;;14.83;100.00;97201.88;5072433;28;20033;-75
2023/11/01 04:00:43;;;;;;;6.00;3.03;;;;;;;14.77;100.00;97187.09;5089247;28;20039;-74
2023/11/01 04:03:09;;;;;;;8.43;4.15;;;;;;;14.79;100.00;97195.06;5072292;28;20060;-75
2023/11/01 04:05:36;;;;;;;7.60;4.07;;;;;;;14.83;100.00;97193.78;5074007;28;20020;-74
2023/11/01 04:08:02;;;;;;;8.13;4.40;;;;;;;14.79;100.00;97190.53;5068067;28;20028;-75
2023/11/01 04:10:27;;;;;;;8.18;4.63;;;;;;;14.67;100.00;97204.16;5072071;28;20123;-75
2023/11/01 04:12:53;;;;;;;9.80;3.80;;;;;;;14.54;100.00;97204.34;5071861;28;20101;-75
2023/11/01 04:15:21;;;;;;;10.27;3.72;;;;;;;14.46;100.00;97199.56;5072105;28;20020;-74
2023/11/01 04:17:46;;;;;;;5.05;3.85;;;;;;;14.35;100.00;97202.31;5088715;28;20051;-74
2023/11/01 04:20:12;;;;;;;10.32;4.85;;;;;;;14.28;100.00;97208.28;5071881;28;20448;-75
2023/11/01 04:22:38;;;;;;;6.88;4.07;;;;;;;14.23;100.00;97215.88;5071904;28;20079;-75
2023/11/01 04:25:05;;;;;;;9.77;4.53;;;;;;;14.14;100.00;97214.81;5071951;28;20056;-75
2023/11/01 04:27:36;;;;;;;4.45;3.45;;;;;;;14.11;100.00;97207.00;5071878;28;20473;-75
2023/11/01 04:30:04;;;;;;;9.32;6.18;;;;;;;14.02;100.00;97213.97;5071966;28;20131;-74
2023/11/01 04:32:29;;;;;;;9.38;5.50;;;;;;;13.91;100.00;97221.19;5071776;28;20024;-74
2023/11/01 04:34:55;;;;;;;8.98;4.80;;;;;;;13.86;100.00;97231.47;5071613;28;20044;-75
2023/11/01 04:37:24;;;;;;;11.63;5.72;;;;;;;13.85;100.00;97237.81;5071820;28;20397;-75
2023/11/01 04:39:49;;;;;;;10.13;5.68;;;;;;;13.80;100.00;97227.44;5072543;28;20408;-75
2023/11/01 04:42:18;;;;;;;7.47;4.70;;;;;;;13.76;100.00;97228.66;5071560;28;20039;-75
2023/11/01 04:44:44;;;;;;;7.43;4.55;;;;;;;13.71;100.00;97240.75;5071060;28;20538;-76
2023/11/01 04:47:10;;;;;;;11.68;5.20;;;;;;;13.68;100.00;97243.69;5067241;28;20020;-75
2023/11/01 04:49:36;;;;;;;22.00;8.80;;;;;;;13.73;100.00;97241.47;5071021;28;20024;-73
2023/11/01 04:52:01;;;;;;;15.38;5.88;;;;;;;13.66;100.00;97234.91;5072337;28;20024;-74
2023/11/01 04:54:27;;;;;;;12.40;5.57;;;;;;;13.67;100.00;97225.84;5072255;28;20027;-73
2023/11/01 04:56:52;;;;;;;12.55;5.93;;;;;;;13.60;100.00;97232.69;5071007;28;20089;-73
2023/11/01 04:59:18;;;;;;;15.55;5.72;;;;;;;13.55;100.00;97233.03;5072213;28;20060;-74
2023/11/01 05:01:47;;;;;;;13.73;6.90;;;;;;;13.51;100.00;97240.47;5070939;28;20525;-74
2023/11/01 05:04:12;;;;;;;12.75;7.03;;;;;;;13.42;100.00;97241.19;5070568;28;20483;-74
2023/11/01 05:06:39;;;;;;;19.02;7.68;;;;;;;13.34;100.00;97245.47;5070192;28;20035;-74
2023/11/01 05:09:05;;;;;;;15.65;7.28;;;;;;;13.37;100.00;97259.53;5071717;28;20115;-74
2023/11/01 05:11:31;;;;;;;14.13;7.43;;;;;;;13.35;100.00;97268.69;5070711;28;20031;-74
2023/11/01 05:13:56;;;;;;;19.25;9.48;;;;;;;13.42;100.00;97267.22;5070772;28;20534;-73
2023/11/01 05:16:22;;;;;;;17.08;8.25;;;;;;;13.38;100.00;97274.66;5070936;28;20182;-74
2023/11/01 05:18:49;;;;;;;14.55;7.80;;;;;;;13.44;100.00;97271.47;5072150;28;20032;-73
2023/11/01 05:21:15;;;;;;;23.00;9.32;;;;;;;13.53;100.00;97284.19;5071428;28;20626;-73
2023/11/01 05:23:41;;;;;;;18.40;9.05;;;;;;;13.61;100.00;97288.13;5070548;28;20138;-73
2023/11/01 05:26:14;;;;;;;12.70;6.90;;;;;;;13.66;100.00;97283.28;5070491;28;20058;-75
2023/11/01 05:28:40;;;;;;;14.05;7.10;;;;;;;13.66;100.00;97281.41;5070518;28;20051;-74
2023/11/01 05:31:06;;;;;;;13.13;6.68;;;;;;;13.69;100.00;97283.03;5087178;28;20070;-75
2023/11/01 05:33:31;;;;;;;15.57;7.13;;;;;;;13.72;100.00;97272.03;5070517;28;20028;-75
2023/11/01 05:35:57;;;;;;;11.32;6.68;;;;;;;13.80;100.00;97286.56;5070487;28;20107;-73
2023/11/01 05:38:25;;;;;;;11.48;6.35;;;;;;;13.84;100.00;97285.34;5087028;28;20115;-74
2023/11/01 05:40:51;;;;;;;56.88;21.98;;;;;;;13.91;100.00;97291.94;5070343;28;20468;-74
2023/11/01 05:43:16;;;;;;;30.80;13.82;;;;;;;13.81;100.00;97293.66;5069945;28;20040;-75
2023/11/01 05:45:42;;;;;;;23.48;10.43;;;;;;;13.83;100.00;97309.66;5070187;28;20494;-74
2023/11/01 05:48:10;;;;;;;22.40;9.60;;;;;;;13.97;100.00;97304.03;5071178;28;20465;-74
2023/11/01 05:50:36;;;;;;;18.70;9.70;;;;;;;14.12;100.00;97314.44;5070439;28;20472;-74
2023/11/01 05:53:06;;;;;;;13.80;7.53;;;;;;;14.35;100.00;97318.03;5071305;28;20089;-74
2023/11/01 05:55:33;;;;;;;20.33;10.10;;;;;;;14.74;100.00;97315.72;5070091;28;20408;-74
2023/11/01 05:57:59;;;;;;;15.95;7.25;;;;;;;15.44;100.00;97308.00;5070037;28;20025;-75
2023/11/01 06:00:25;;;;;;;12.88;6.47;;;;;;;15.98;100.00;97291.63;5069636;28;20024;-73
2023/11/01 06:02:50;;;;;;;20.67;10.60;;;;;;;15.94;100.00;97298.25;5071136;28;20424;-73
2023/11/01 06:05:16;;;;;;;15.38;7.07;;;;;;;16.28;100.00;97297.00;5069693;28;20464;-74
2023/11/01 06:07:42;;;;;;;10.40;7.03;;;;;;;16.96;100.00;97295.34;5070885;28;20028;-73
2023/11/01 06:10:08;;;;;;;14.80;7.53;;;;;;;17.85;100.00;97290.50;5069754;28;20024;-74
2023/11/01 06:12:33;;;;;;;14.90;6.65;;;;;;;18.26;100.00;97283.81;5069774;28;20226;-73
2023/11/01 06:14:59;;;;;;;11.15;5.32;;;;;;;18.66;100.00;97285.34;5053016;28;20032;-74
2023/11/01 06:17:24;;;;;;;9.73;5.22;;;;;;;19.23;100.00;97278.66;5069219;28;20389;-73
2023/11/01 06:19:50;;;;;;;14.65;5.65;;;;;;;18.38;100.00;97293.44;5070605;28;20028;-74
2023/11/01 06:22:16;;;;;;;13.82;5.43;;;;;;;18.79;100.00;97313.81;5070664;28;20052;-75
2023/11/01 06:24:42;;;;;;;13.52;5.43;;;;;;;19.18;100.00;97308.97;5070427;28;20135;-74
2023/11/01 06:27:08;;;;;;;12.90;5.85;;;;;;;19.58;100.00;97310.41;5069624;28;20110;-74
2023/11/01 06:29:35;;;;;;;10.25;5.65;;;;;;;19.76;100.00;97294.94;5086203;28;20024;-74
2023/11/01 06:32:01;;;;;;;9.15;5.20;;;;;;;18.84;100.00;97303.34;5069482;28;20016;-74
2023/11/01 06:34:27;;;;;;;13.70;5.47;;;;;;;17.33;100.00;97320.72;5069472;28;20020;-73
2023/11/01 06:36:52;;;;;;;12.23;6.18;;;;;;;16.85;100.00;97325.22;5069412;28;20409;-73
2023/11/01 06:39:18;;;;;;;13.98;6.45;;;;;;;16.50;100.00;97320.25;5070424;28;20029;-73
2023/11/01 06:41:43;;;;;;;15.50;6.90;;;;;;;16.31;100.00;97325.56;5052768;28;20377;-74
2023/11/01 06:44:09;;;;;;;11.07;6.20;;;;;;;16.03;100.00;97344.19;5070380;28;20021;-75
2023/11/01 06:46:34;;;;;;;10.65;5.65;;;;;;;15.92;100.00;97343.41;5069105;28;20059;-74
2023/11/01 06:49:00;;;;;;;8.93;5.55;;;;;;;15.93;100.00;97345.13;5086097;28;20028;-75
2023/11/01 06:51:25;;;;;;;12.80;6.47;;;;;;;15.70;100.00;97342.56;5069018;28;20031;-75
2023/11/01 06:53:51;;;;;;;17.65;7.07;;;;;;;15.78;100.00;97343.75;5068862;28;20020;-75
2023/11/01 06:56:16;;;;;;;15.73;6.88;;;;;;;15.89;100.00;97346.38;5085745;28;20549;-75
2023/11/01 06:58:43;;;;;;;14.75;6.53;;;;;;;16.08;100.00;97346.50;5068834;28;20415;-75
2023/11/01 07:01:10;;;;;;;11.43;5.82;;;;;;;16.16;100.00;97334.03;5069353;28;20024;-76
2023/11/01 07:03:36;;;;;;;7.43;4.25;;;;;;;16.19;100.00;97332.91;5068812;28;20103;-76
2023/11/01 07:06:01;;;;;;;10.68;4.88;;;;;;;16.65;100.00;97335.09;5069256;28;20159;-76
2023/11/01 07:08:27;;;;;;;10.63;4.43;;;;;;;18.63;100.00;97334.44;5070212;28;20024;-75
2023/11/01 07:10:52;;;;;;;9.70;4.40;;;;;;;19.95;100.00;97320.03;5068701;28;20038;-75
2023/11/01 07:13:44;;;;;;;13.18;6.03;;;;;;;20.12;100.00;97325.59;5069039;28;20056;-77
2023/11/01 07:16:31;;;;;;;8.30;4.28;;;;;;;21.57;100.00;97328.91;5066288;28;20412;-77
2023/11/01 07:18:58;;;;;;;12.85;4.45;;;;;;;21.19;100.00;97332.25;5054413;28;20040;-75
2023/11/01 07:21:24;;;;;;;6.18;3.05;;;;;;;20.47;100.00;97341.78;5068737;28;20113;-76
2023/11/01 07:23:50;;;;;;;16.70;5.43;;;;;;;19.76;100.00;97360.94;5069810;28;20515;-75
2023/11/01 07:26:16;;;;;;;9.80;4.82;;;;;;;19.15;100.00;97374.38;5068699;28;20108;-75
2023/11/01 07:28:41;;;;;;;11.68;4.95;;;;;;;18.77;100.00;97378.13;5069985;28;20218;-75
2023/11/01 07:31:07;;;;;;;20.30;7.00;;;;;;;18.37;100.00;97372.13;5072354;28;20028;-75
2023/11/01 07:33:32;;;;;;;10.75;4.95;;;;;;;18.22;100.00;97381.72;5072790;28;20021;-75
2023/11/01 07:35:58;;;;;;;9.95;5.55;;;;;;;18.02;100.00;97389.03;5072621;28;20036;-75
2023/11/01 07:38:23;;;;;;;9.25;5.13;;;;;;;17.70;100.00;97391.19;5072079;28;20065;-74
2023/11/01 07:40:49;;;;;;;13.32;4.80;;;;;;;17.79;100.00;97398.44;5073738;28;20105;-75
2023/11/01 07:43:15;;;;;;;9.57;4.80;;;;;;;17.75;100.00;97406.00;5072505;28;20033;-75
2023/11/01 07:45:41;;;;;;;13.18;7.25;;;;;;;17.53;100.00;97408.97;5089437;28;20028;-75
2023/11/01 07:48:06;;;;;;;18.35;7.35;;;;;;;17.31;100.00;97414.63;5073881;28;20499;-75
2023/11/01 07:50:32;;;;;;;20.10;8.88;;;;;;;17.29;100.00;97422.88;5072391;28;20032;-76
2023/11/01 07:52:58;;;;;;;18.48;8.20;;;;;;;17.48;100.00;97427.47;5073855;28;20064;-74
2023/11/01 07:55:23;;;;;;;21.50;7.03;;;;;;;17.53;100.00;97417.09;5073681;28;20446;-75
2023/11/01 07:57:49;;;;;;;17.55;7.25;;;;;;;17.50;100.00;97420.06;5072200;28;20035;-75
2023/11/01 08:00:14;;;;;;;14.25;5.80;;;;;;;17.86;100.00;97416.69;5072540;28;20492;-76
2023/11/01 08:02:40;;;;;;;14.00;5.93;;;;;;;18.08;100.00;97420.09;5071916;28;20025;-75
2023/11/01 08:05:15;;;;;;;13.38;5.55;;;;;;;18.63;100.00;97419.28;5072149;28;20567;-75
2023/11/01 08:07:41;;;;;;;11.65;6.07;;;;;;;18.82;100.00;97411.09;5072250;28;20024;-77
2023/11/01 08:10:07;;;;;;;19.25;5.68;;;;;;;18.66;100.00;97421.69;5073589;28;20032;-75
2023/11/01 08:12:33;;;;;;;9.55;5.00;;;;;;;18.46;100.00;97424.59;5072177;28;20051;-75
2023/11/01 08:14:58;;;;;;;13.57;5.60;;;;;;;18.42;100.00;97438.44;5073384;28;20021;-75
2023/11/01 08:17:24;;;;;;;11.93;5.10;;;;;;;18.57;100.00;97443.41;5073288;28;20036;-74
2023/11/01 08:19:49;;;;;;;10.15;4.70;;;;;;;18.49;100.00;97445.97;5072048;28;20029;-76
2023/11/01 08:22:15;;;;;;;11.77;4.45;;;;;;;18.07;100.00;97449.00;5088923;28;20420;-74
2023/11/01 08:24:40;;;;;;;5.72;3.70;;;;;;;17.95;100.00;97462.84;5072319;28;20068;-75
2023/11/01 08:27:06;;;;;;;5.93;3.90;;;;;;;17.93;100.00;97467.53;5071830;28;20032;-75
2023/11/01 08:29:33;;;;;;;6.78;3.95;;;;;;;17.81;100.00;97478.50;5073424;28;20129;-75
2023/11/01 08:31:58;;;;;;;6.93;3.42;;;;;;;17.67;100.00;97483.47;5073007;28;20035;-75
2023/11/01 08:34:24;;;;;;;4.28;2.67;;;;;;;17.49;100.00;97479.69;5073142;28;20024;-76
2023/11/01 08:36:52;;;;;;;10.98;3.25;;;;;;;17.17;100.00;97488.00;5073073;28;20031;-75
2023/11/01 08:39:17;;;;;;;8.18;3.50;;;;;;;17.07;100.00;97482.56;5072935;28;20090;-77
2023/11/01 08:41:43;;;;;;;9.35;3.53;;;;;;;17.02;100.00;97489.38;5072557;28;20028;-76
2023/11/01 08:44:09;;;;;;;11.07;3.63;;;;;;;16.95;100.00;97496.34;5071460;28;20094;-75
2023/11/01 08:46:34;;;;;;;5.72;3.20;;;;;;;16.78;100.00;97493.25;5071451;28;20485;-76
2023/11/01 08:49:00;;;;;;;7.45;3.05;;;;;;;16.83;100.00;97505.53;5071378;28;20029;-75
2023/11/01 08:51:26;;;;;;;7.15;3.95;;;;;;;17.02;100.00;97502.88;5071538;28;20032;-76
2023/11/01 08:53:51;;;;;;;7.47;3.53;;;;;;;16.95;100.00;97490.94;5071412;28;20028;-74
2023/11/01 08:56:17;;;;;;;5.22;3.53;;;;;;;17.17;100.00;97494.28;5071522;28;20033;-76
2023/11/01 08:58:42;;;;;;;7.60;4.03;;;;;;;17.13;100.00;97497.41;5071676;28;20121;-75
2023/11/01 09:01:08;;;;;;;8.27;3.00;;;;;;;17.29;100.00;97505.81;5071441;28;20421;-77
2023/11/01 09:03:34;;;;;;;4.90;3.15;;;;;;;17.37;100.00;97503.31;5070974;28;20033;-76
2023/11/01 09:05:59;;;;;;;5.85;3.10;;;;;;;17.82;100.00;97501.84;5070924;28;20025;-76
2023/11/01 09:08:25;;;;;;;5.57;3.42;;;;;;;18.40;100.00;97491.00;5072383;28;20507;-75
2023/11/01 09:10:50;;;;;;;7.72;3.78;;;;;;;19.02;100.00;97481.47;5070978;28;20082;-75
2023/11/01 09:13:16;;;;;;;5.32;3.30;;;;;;;19.86;100.00;97475.75;5070920;28;20028;-75
2023/11/01 09:15:42;;;;;;;7.00;3.38;;;;;;;22.12;100.00;97455.31;5071103;28;20111;-75
2023/11/01 09:18:08;;;;;;;7.85;3.90;;;;;;;22.59;100.00;97454.63;5072148;28;20094;-75
2023/11/01 09:20:35;;;;;;;5.47;3.33;;;;;;;22.44;100.00;97454.47;5071883;28;20048;-74
2023/11/01 09:23:01;;;;;;;4.95;3.13;;;;;;;22.27;100.00;97449.19;5070844;28;20020;-75
2023/11/01 09:25:29;;;;;;;6.28;2.95;;;;;;;21.67;100.00;97446.69;5071781;28;20031;-75
2023/11/01 09:27:55;;;;;;;6.70;3.30;;;;;;;21.18;100.00;97445.69;5070819;28;20035;-74
2023/11/01 09:30:20;;;;;;;7.25;3.97;;;;;;;21.76;100.00;97450.28;5069061;28;20033;-74
2023/11/01 09:32:46;;;;;;;11.73;4.13;;;;;;;22.02;100.00;97432.84;5087404;28;20029;-76
2023/11/01 09:35:12;;;;;;;25.35;8.98;;;;;;;24.10;100.00;97422.47;5070359;28;20440;-77
2023/11/01 09:37:38;;;;;;;7.70;3.20;;;;;;;25.79;80.03;97398.78;5070383;28;20036;-75
2023/11/01 09:40:04;;;;;;;7.53;3.30;;;;;;;27.00;75.43;97393.16;5071361;28;20123;-76
2023/11/01 09:42:30;;;;;;;4.95;2.78;;;;;;;28.18;64.25;97377.16;5053640;28;20094;-76
2023/11/01 09:44:57;;;;;;;5.30;3.13;;;;;;;29.24;59.66;97376.09;5087038;28;20125;-76
2023/11/01 09:47:27;;;;;;;3.10;2.40;;;;;;;29.37;56.60;97372.44;5069979;28;20024;-75
2023/11/01 09:49:56;;;;;;;12.00;2.75;;;;;;;28.76;56.75;97374.69;5070085;28;20055;-76
2023/11/01 09:52:24;;;;;;;8.00;2.55;;;;;;;28.88;54.20;97379.34;5070613;28;20055;-76
2023/11/01 09:54:50;;;;;;;4.45;2.60;;;;;;;28.30;55.32;97382.91;5071322;28;20533;-77
2023/11/01 09:57:16;;;;;;;4.13;2.55;;;;;;;28.07;60.23;97390.69;5071197;28;20111;-77
2023/11/01 09:59:42;;;;;;;4.97;2.30;;;;;;;27.60;57.53;97367.69;5069861;28;20020;-77
2023/11/01 10:02:10;;;;;;;5.72;2.60;;;;;;;28.67;53.89;97353.94;5069764;28;20464;-75
2023/11/01 10:04:36;;;;;;;5.47;2.65;;;;;;;28.95;53.89;97362.75;5053063;28;20523;-77
2023/11/01 10:07:01;;;;;;;4.53;2.40;;;;;;;27.75;54.35;97364.75;5069795;28;20059;-77
2023/11/01 10:09:28;;;;;;;4.32;2.20;;;;;;;28.61;54.00;97363.00;5069380;28;20466;-77
2023/11/01 10:11:54;;;;;;;4.93;1.85;;;;;;;29.48;49.28;97352.47;5069865;28;20026;-77
2023/11/01 10:14:30;;;;;;;4.53;2.50;;;;;;;30.41;48.72;97346.22;5069530;28;20052;-78
2023/11/01 10:16:57;;;;;;;4.15;2.30;;;;;;;29.79;46.71;97330.47;5069700;28;20547;-76
2023/11/01 10:19:25;;;;;;;5.50;2.17;;;;;;;30.31;46.56;97328.41;5069295;28;20400;-77
2023/11/01 10:21:52;;;;;;;5.15;2.28;;;;;;;29.17;49.42;97341.31;5069341;28;20121;-77
2023/11/01 10:24:18;;;;;;;5.45;2.40;;;;;;;30.75;45.59;97319.16;5070660;28;20121;-78
2023/11/01 10:26:43;;;;;;;2.78;1.92;;;;;;;30.88;43.60;97316.25;5052845;28;20471;-77
2023/11/01 10:29:09;;;;;;;2.78;2.05;;;;;;;30.44;45.69;97323.69;5086557;28;20455;-77
2023/11/01 10:31:34;;;;;;;4.25;2.03;;;;;;;30.26;45.30;97320.84;5052662;28;20052;-79
2023/11/01 10:34:13;;;;;;;3.08;2.03;;;;;;;30.68;46.06;97327.50;5069464;28;20051;-78
2023/11/01 10:36:52;;;;;;;3.92;2.00;;;;;;;31.82;42.90;97324.91;5067145;28;20032;-77
2023/11/01 10:39:18;;;;;;;3.75;2.25;;;;;;;31.07;43.93;97337.34;5069267;28;20029;-77
2023/11/01 10:41:49;;;;;;;2.42;2.17;;;;;;;30.75;45.05;97330.19;5069275;28;20408;-75
2023/11/01 10:44:15;;;;;;;5.13;2.03;;;;;;;29.79;46.39;97327.69;5070399;28;20031;-76
2023/11/01 10:46:41;;;;;;;3.45;2.35;;;;;;;30.77;44.52;97315.06;5069086;28;20458;-77
2023/11/01 10:49:09;;;;;;;4.50;2.28;;;;;;;31.48;44.09;97317.25;5070500;28;20506;-75
2023/11/01 10:51:37;;;;;;;5.57;3.00;;;;;;;31.08;45.41;97328.81;5052550;28;20028;-74
2023/11/01 10:54:02;;;;;;;4.82;2.40;;;;;;;30.97;44.34;97324.06;5070517;28;20024;-76
2023/11/01 10:56:28;;;;;;;5.60;2.60;;;;;;;29.04;51.49;97336.69;5068954;28;20428;-76
2023/11/01 10:58:58;;;;;;;6.30;2.80;;;;;;;28.39;51.16;97335.69;5052251;28;20098;-75
2023/11/01 11:01:32;;;;;;;3.22;2.60;;;;;;;28.54;53.85;97329.97;5068976;28;20549;-75
2023/11/01 11:04:22;;;;;;;8.52;2.38;;;;;;;30.22;48.09;97318.72;5051723;28;20480;-75
2023/11/01 11:06:59;;;;;;;6.40;2.42;;;;;;;30.73;46.09;97319.38;5069087;28;20032;-75
2023/11/01 11:09:25;;;;;;;3.85;2.60;;;;;;;31.11;45.48;97316.44;5068954;28;20039;-75
2023/11/01 11:12:15;;;;;;;5.75;2.60;;;;;;;30.65;47.23;97322.41;5068832;28;20467;-76
2023/11/01 11:14:42;;;;;;;6.80;2.70;;;;;;;31.15;43.95;97301.09;5070023;28;20066;-76
2023/11/01 11:17:08;;;;;;;5.15;2.35;;;;;;;29.86;46.21;97305.63;5068956;28;20103;-77
2023/11/01 11:20:10;;;;;;;5.90;2.50;;;;;;;27.70;51.84;97315.91;5068864;28;20055;-76
2023/11/01 11:22:57;;;;;;;5.57;2.30;;;;;;;26.61;57.13;97321.50;5056185;28;20131;-77